sensor_id;sensor_type;location;lat;lon;timestamp;P1;durP1;ratioP1;P2;durP2;ratioP2
18726;SDS011;9492;51.888;5.186;2023-12-14T00:00:47;7.50;;;6.07;;
18726;SDS011;9492;51.888;5.186;2023-12-14T00:03:13;7.27;;;5.27;;
18726;SDS011;9492;51.888;5.186;2023-12-14T00:05:39;7.77;;;6.47;;
18726;SDS011;9492;51.888;5.186;2023-12-14T00:08:05;8.20;;;6.20;;
18726;SDS011;9492;51.888;5.186;2023-12-14T00:10:31;8.40;;;6.20;;
18726;SDS011;9492;51.888;5.186;2023-12-14T00:12:57;6.93;;;6.00;;
18726;SDS011;9492;51.888;5.186;2023-12-14T00:15:23;8.13;;;6.70;;
18726;SDS011;9492;51.888;5.186;2023-12-14T00:17:49;10.63;;;6.77;;
18726;SDS011;9492;51.888;5.186;2023-12-14T00:20:15;6.80;;;6.10;;
18726;SDS011;9492;51.888;5.186;2023-12-14T00:22:41;8.30;;;6.30;;
18726;SDS011;9492;51.888;5.186;2023-12-14T00:25:07;9.70;;;6.67;;
18726;SDS011;9492;51.888;5.186;2023-12-14T00:27:33;9.77;;;6.40;;
18726;SDS011;9492;51.888;5.186;2023-12-14T00:29:59;11.73;;;7.70;;
18726;SDS011;9492;51.888;5.186;2023-12-14T00:32:25;8.80;;;7.20;;
18726;SDS011;9492;51.888;5.186;2023-12-14T00:34:51;9.40;;;7.40;;
18726;SDS011;9492;51.888;5.186;2023-12-14T00:37:17;11.03;;;7.30;;
18726;SDS011;9492;51.888;5.186;2023-12-14T00:39:43;10.93;;;8.53;;
18726;SDS011;9492;51.888;5.186;2023-12-14T00:42:09;9.30;;;7.50;;
18726;SDS011;9492;51.888;5.186;2023-12-14T00:44:35;10.17;;;7.97;;
18726;SDS011;9492;51.888;5.186;2023-12-14T00:47:01;9.70;;;8.13;;
18726;SDS011;9492;51.888;5.186;2023-12-14T00:49:27;9.83;;;7.83;;
18726;SDS011;9492;51.888;5.186;2023-12-14T00:51:53;12.27;;;7.63;;
18726;SDS011;9492;51.888;5.186;2023-12-14T00:54:19;9.87;;;7.23;;
18726;SDS011;9492;51.888;5.186;2023-12-14T00:56:45;8.93;;;7.30;;
18726;SDS011;9492;51.888;5.186;2023-12-14T00:59:11;9.97;;;7.70;;
18726;SDS011;9492;51.888;5.186;2023-12-14T01:01:37;11.53;;;8.43;;
18726;SDS011;9492;51.888;5.186;2023-12-14T01:04:03;9.27;;;7.37;;
18726;SDS011;9492;51.888;5.186;2023-12-14T01:06:29;10.33;;;7.70;;
18726;SDS011;9492;51.888;5.186;2023-12-14T01:08:55;8.53;;;7.00;;
18726;SDS011;9492;51.888;5.186;2023-12-14T01:11:21;8.50;;;7.30;;
18726;SDS011;9492;51.888;5.186;2023-12-14T01:13:47;10.10;;;7.50;;
18726;SDS011;9492;51.888;5.186;2023-12-14T01:16:13;12.03;;;8.23;;
18726;SDS011;9492;51.888;5.186;2023-12-14T01:18:39;9.80;;;7.57;;
18726;SDS011;9492;51.888;5.186;2023-12-14T01:21:05;10.10;;;7.67;;
18726;SDS011;9492;51.888;5.186;2023-12-14T01:23:31;9.13;;;7.70;;
18726;SDS011;9492;51.888;5.186;2023-12-14T01:25:57;9.67;;;8.23;;
18726;SDS011;9492;51.888;5.186;2023-12-14T01:28:23;9.37;;;7.33;;
18726;SDS011;9492;51.888;5.186;2023-12-14T01:30:49;12.33;;;7.87;;
18726;SDS011;9492;51.888;5.186;2023-12-14T01:33:15;11.23;;;7.93;;
18726;SDS011;9492;51.888;5.186;2023-12-14T01:35:41;11.17;;;7.87;;
18726;SDS011;9492;51.888;5.186;2023-12-14T01:38:07;12.27;;;7.80;;
18726;SDS011;9492;51.888;5.186;2023-12-14T01:40:33;9.70;;;7.63;;
18726;SDS011;9492;51.888;5.186;2023-12-14T01:43:06;9.83;;;7.10;;
18726;SDS011;9492;51.888;5.186;2023-12-14T01:45:32;9.00;;;7.17;;
18726;SDS011;9492;51.888;5.186;2023-12-14T01:47:58;10.97;;;7.97;;
18726;SDS011;9492;51.888;5.186;2023-12-14T01:50:24;8.47;;;7.00;;
18726;SDS011;9492;51.888;5.186;2023-12-14T01:52:50;7.90;;;6.40;;
18726;SDS011;9492;51.888;5.186;2023-12-14T01:55:16;9.00;;;7.10;;
18726;SDS011;9492;51.888;5.186;2023-12-14T01:57:42;7.67;;;5.87;;
18726;SDS011;9492;51.888;5.186;2023-12-14T02:00:09;7.40;;;6.60;;
18726;SDS011;9492;51.888;5.186;2023-12-14T02:02:40;7.93;;;6.17;;
18726;SDS011;9492;51.888;5.186;2023-12-14T02:05:06;8.70;;;6.20;;
18726;SDS011;9492;51.888;5.186;2023-12-14T02:07:32;11.77;;;6.70;;
18726;SDS011;9492;51.888;5.186;2023-12-14T02:09:58;7.60;;;6.00;;
18726;SDS011;9492;51.888;5.186;2023-12-14T02:12:24;8.53;;;7.30;;
18726;SDS011;9492;51.888;5.186;2023-12-14T02:14:50;8.13;;;6.27;;
18726;SDS011;9492;51.888;5.186;2023-12-14T02:17:16;8.13;;;6.40;;
18726;SDS011;9492;51.888;5.186;2023-12-14T02:19:42;7.73;;;6.93;;
18726;SDS011;9492;51.888;5.186;2023-12-14T02:22:08;8.17;;;7.23;;
18726;SDS011;9492;51.888;5.186;2023-12-14T02:24:34;8.73;;;6.90;;
18726;SDS011;9492;51.888;5.186;2023-12-14T02:27:00;9.63;;;7.57;;
18726;SDS011;9492;51.888;5.186;2023-12-14T02:29:26;7.70;;;6.90;;
18726;SDS011;9492;51.888;5.186;2023-12-14T02:31:52;8.53;;;7.60;;
18726;SDS011;9492;51.888;5.186;2023-12-14T02:34:18;8.70;;;6.90;;
18726;SDS011;9492;51.888;5.186;2023-12-14T02:36:45;7.87;;;6.77;;
18726;SDS011;9492;51.888;5.186;2023-12-14T02:39:11;7.97;;;6.73;;
18726;SDS011;9492;51.888;5.186;2023-12-14T02:41:37;9.17;;;6.83;;
18726;SDS011;9492;51.888;5.186;2023-12-14T02:44:03;9.53;;;7.70;;
18726;SDS011;9492;51.888;5.186;2023-12-14T02:46:29;8.70;;;7.10;;
18726;SDS011;9492;51.888;5.186;2023-12-14T02:48:55;8.90;;;7.13;;
18726;SDS011;9492;51.888;5.186;2023-12-14T02:51:21;9.13;;;7.37;;
18726;SDS011;9492;51.888;5.186;2023-12-14T02:53:47;10.33;;;7.70;;
18726;SDS011;9492;51.888;5.186;2023-12-14T02:56:13;10.63;;;7.33;;
18726;SDS011;9492;51.888;5.186;2023-12-14T02:58:39;9.97;;;7.47;;
18726;SDS011;9492;51.888;5.186;2023-12-14T03:01:05;8.03;;;6.63;;
18726;SDS011;9492;51.888;5.186;2023-12-14T03:03:32;9.50;;;8.17;;
18726;SDS011;9492;51.888;5.186;2023-12-14T03:05:58;9.30;;;8.00;;
18726;SDS011;9492;51.888;5.186;2023-12-14T03:08:23;9.37;;;7.57;;
18726;SDS011;9492;51.888;5.186;2023-12-14T03:10:49;9.90;;;7.17;;
18726;SDS011;9492;51.888;5.186;2023-12-14T03:13:15;9.77;;;7.77;;
18726;SDS011;9492;51.888;5.186;2023-12-14T03:15:42;9.07;;;7.37;;
18726;SDS011;9492;51.888;5.186;2023-12-14T03:18:09;10.27;;;7.93;;
18726;SDS011;9492;51.888;5.186;2023-12-14T03:20:35;9.33;;;7.23;;
18726;SDS011;9492;51.888;5.186;2023-12-14T03:23:01;8.80;;;6.80;;
18726;SDS011;9492;51.888;5.186;2023-12-14T03:25:27;8.33;;;7.50;;
18726;SDS011;9492;51.888;5.186;2023-12-14T03:27:53;9.40;;;7.23;;
18726;SDS011;9492;51.888;5.186;2023-12-14T03:30:19;7.93;;;6.90;;
18726;SDS011;9492;51.888;5.186;2023-12-14T03:32:45;8.00;;;6.73;;
18726;SDS011;9492;51.888;5.186;2023-12-14T03:35:11;8.07;;;6.67;;
18726;SDS011;9492;51.888;5.186;2023-12-14T03:37:37;8.30;;;7.20;;
18726;SDS011;9492;51.888;5.186;2023-12-14T03:40:03;9.17;;;7.37;;
18726;SDS011;9492;51.888;5.186;2023-12-14T03:42:29;8.63;;;7.70;;
18726;SDS011;9492;51.888;5.186;2023-12-14T03:44:55;7.90;;;7.07;;
18726;SDS011;9492;51.888;5.186;2023-12-14T03:47:21;8.30;;;7.03;;
18726;SDS011;9492;51.888;5.186;2023-12-14T03:49:47;9.07;;;6.73;;
18726;SDS011;9492;51.888;5.186;2023-12-14T03:52:14;9.03;;;7.23;;
18726;SDS011;9492;51.888;5.186;2023-12-14T03:54:40;8.97;;;7.40;;
18726;SDS011;9492;51.888;5.186;2023-12-14T03:57:06;10.57;;;8.00;;
18726;SDS011;9492;51.888;5.186;2023-12-14T03:59:32;10.57;;;7.57;;
18726;SDS011;9492;51.888;5.186;2023-12-14T04:01:58;9.10;;;7.67;;
18726;SDS011;9492;51.888;5.186;2023-12-14T04:04:24;9.00;;;7.47;;
18726;SDS011;9492;51.888;5.186;2023-12-14T04:06:50;9.10;;;7.70;;
18726;SDS011;9492;51.888;5.186;2023-12-14T04:09:16;9.97;;;8.40;;
18726;SDS011;9492;51.888;5.186;2023-12-14T04:11:42;11.23;;;8.10;;
18726;SDS011;9492;51.888;5.186;2023-12-14T04:14:08;11.97;;;8.60;;
18726;SDS011;9492;51.888;5.186;2023-12-14T04:16:34;8.83;;;7.60;;
18726;SDS011;9492;51.888;5.186;2023-12-14T04:19:00;10.40;;;7.70;;
18726;SDS011;9492;51.888;5.186;2023-12-14T04:21:26;9.23;;;7.90;;
18726;SDS011;9492;51.888;5.186;2023-12-14T04:23:52;11.07;;;7.70;;
18726;SDS011;9492;51.888;5.186;2023-12-14T04:26:18;7.83;;;6.87;;
18726;SDS011;9492;51.888;5.186;2023-12-14T04:28:45;10.87;;;8.00;;
18726;SDS011;9492;51.888;5.186;2023-12-14T04:31:11;13.07;;;9.30;;
18726;SDS011;9492;51.888;5.186;2023-12-14T04:33:37;12.73;;;9.13;;
18726;SDS011;9492;51.888;5.186;2023-12-14T04:36:04;12.47;;;8.90;;
18726;SDS011;9492;51.888;5.186;2023-12-14T04:38:30;12.33;;;8.70;;
18726;SDS011;9492;51.888;5.186;2023-12-14T04:40:56;11.50;;;8.10;;
18726;SDS011;9492;51.888;5.186;2023-12-14T04:43:24;15.23;;;8.73;;
18726;SDS011;9492;51.888;5.186;2023-12-14T04:45:50;15.83;;;9.40;;
18726;SDS011;9492;51.888;5.186;2023-12-14T04:48:16;14.07;;;9.20;;
18726;SDS011;9492;51.888;5.186;2023-12-14T04:50:42;12.47;;;8.50;;
18726;SDS011;9492;51.888;5.186;2023-12-14T04:53:08;11.10;;;8.60;;
18726;SDS011;9492;51.888;5.186;2023-12-14T04:55:34;13.70;;;9.37;;
18726;SDS011;9492;51.888;5.186;2023-12-14T04:58:00;14.27;;;8.63;;
18726;SDS011;9492;51.888;5.186;2023-12-14T05:00:26;12.23;;;8.53;;
18726;SDS011;9492;51.888;5.186;2023-12-14T05:02:52;13.83;;;8.43;;
18726;SDS011;9492;51.888;5.186;2023-12-14T05:05:18;13.10;;;7.97;;
18726;SDS011;9492;51.888;5.186;2023-12-14T05:07:44;15.30;;;8.63;;
18726;SDS011;9492;51.888;5.186;2023-12-14T05:10:10;10.63;;;7.80;;
18726;SDS011;9492;51.888;5.186;2023-12-14T05:12:36;13.87;;;8.20;;
18726;SDS011;9492;51.888;5.186;2023-12-14T05:15:04;13.67;;;7.70;;
18726;SDS011;9492;51.888;5.186;2023-12-14T05:17:30;11.70;;;8.60;;
18726;SDS011;9492;51.888;5.186;2023-12-14T05:19:56;12.27;;;7.50;;
18726;SDS011;9492;51.888;5.186;2023-12-14T05:22:23;10.30;;;7.50;;
18726;SDS011;9492;51.888;5.186;2023-12-14T05:24:49;14.77;;;7.77;;
18726;SDS011;9492;51.888;5.186;2023-12-14T05:27:15;9.33;;;7.10;;
18726;SDS011;9492;51.888;5.186;2023-12-14T05:29:41;10.80;;;7.20;;
18726;SDS011;9492;51.888;5.186;2023-12-14T05:32:07;10.50;;;6.33;;
18726;SDS011;9492;51.888;5.186;2023-12-14T05:34:33;9.10;;;6.33;;
18726;SDS011;9492;51.888;5.186;2023-12-14T05:36:59;10.77;;;5.90;;
18726;SDS011;9492;51.888;5.186;2023-12-14T05:39:25;8.47;;;5.63;;
18726;SDS011;9492;51.888;5.186;2023-12-14T05:41:51;11.27;;;5.93;;
18726;SDS011;9492;51.888;5.186;2023-12-14T05:44:17;7.43;;;5.40;;
18726;SDS011;9492;51.888;5.186;2023-12-14T05:46:43;9.43;;;5.43;;
18726;SDS011;9492;51.888;5.186;2023-12-14T05:49:09;7.30;;;5.43;;
18726;SDS011;9492;51.888;5.186;2023-12-14T05:51:35;8.00;;;5.40;;
18726;SDS011;9492;51.888;5.186;2023-12-14T05:54:02;8.90;;;5.13;;
18726;SDS011;9492;51.888;5.186;2023-12-14T05:56:28;7.73;;;5.27;;
18726;SDS011;9492;51.888;5.186;2023-12-14T05:58:54;5.67;;;5.00;;
18726;SDS011;9492;51.888;5.186;2023-12-14T06:01:23;6.63;;;4.33;;
18726;SDS011;9492;51.888;5.186;2023-12-14T06:03:49;6.43;;;4.73;;
18726;SDS011;9492;51.888;5.186;2023-12-14T06:06:15;6.20;;;4.90;;
18726;SDS011;9492;51.888;5.186;2023-12-14T06:08:41;9.57;;;5.43;;
18726;SDS011;9492;51.888;5.186;2023-12-14T06:11:08;6.67;;;5.20;;
18726;SDS011;9492;51.888;5.186;2023-12-14T06:13:34;5.60;;;4.67;;
18726;SDS011;9492;51.888;5.186;2023-12-14T06:16:00;5.80;;;4.60;;
18726;SDS011;9492;51.888;5.186;2023-12-14T06:18:26;7.23;;;5.00;;
18726;SDS011;9492;51.888;5.186;2023-12-14T06:20:52;6.77;;;4.63;;
18726;SDS011;9492;51.888;5.186;2023-12-14T06:23:18;7.77;;;5.20;;
18726;SDS011;9492;51.888;5.186;2023-12-14T06:25:44;7.13;;;5.07;;
18726;SDS011;9492;51.888;5.186;2023-12-14T06:28:10;6.03;;;4.33;;
18726;SDS011;9492;51.888;5.186;2023-12-14T06:30:37;5.30;;;4.70;;
18726;SDS011;9492;51.888;5.186;2023-12-14T06:33:03;6.00;;;4.30;;
18726;SDS011;9492;51.888;5.186;2023-12-14T06:35:29;6.77;;;4.97;;
18726;SDS011;9492;51.888;5.186;2023-12-14T06:37:55;6.93;;;4.80;;
18726;SDS011;9492;51.888;5.186;2023-12-14T06:40:21;6.30;;;4.73;;
18726;SDS011;9492;51.888;5.186;2023-12-14T06:42:47;6.00;;;4.93;;
18726;SDS011;9492;51.888;5.186;2023-12-14T06:45:14;7.70;;;5.00;;
18726;SDS011;9492;51.888;5.186;2023-12-14T06:47:40;7.07;;;5.60;;
18726;SDS011;9492;51.888;5.186;2023-12-14T06:50:08;5.80;;;4.87;;
18726;SDS011;9492;51.888;5.186;2023-12-14T06:52:34;7.33;;;5.53;;
18726;SDS011;9492;51.888;5.186;2023-12-14T06:55:00;9.67;;;5.50;;
18726;SDS011;9492;51.888;5.186;2023-12-14T06:57:26;6.63;;;4.57;;
18726;SDS011;9492;51.888;5.186;2023-12-14T06:59:54;16.77;;;5.23;;
18726;SDS011;9492;51.888;5.186;2023-12-14T07:02:19;4.83;;;4.37;;
18726;SDS011;9492;51.888;5.186;2023-12-14T07:04:45;6.60;;;4.90;;
18726;SDS011;9492;51.888;5.186;2023-12-14T07:07:12;5.07;;;4.57;;
18726;SDS011;9492;51.888;5.186;2023-12-14T07:09:38;6.47;;;4.43;;
18726;SDS011;9492;51.888;5.186;2023-12-14T07:12:04;5.70;;;4.40;;
18726;SDS011;9492;51.888;5.186;2023-12-14T07:14:30;5.67;;;4.80;;
18726;SDS011;9492;51.888;5.186;2023-12-14T07:16:56;6.20;;;4.33;;
18726;SDS011;9492;51.888;5.186;2023-12-14T07:19:22;6.47;;;4.20;;
18726;SDS011;9492;51.888;5.186;2023-12-14T07:21:48;5.00;;;4.27;;
18726;SDS011;9492;51.888;5.186;2023-12-14T07:24:14;4.40;;;3.87;;
18726;SDS011;9492;51.888;5.186;2023-12-14T07:26:40;5.33;;;3.97;;
18726;SDS011;9492;51.888;5.186;2023-12-14T07:29:06;4.03;;;3.63;;
18726;SDS011;9492;51.888;5.186;2023-12-14T07:31:32;4.23;;;3.83;;
18726;SDS011;9492;51.888;5.186;2023-12-14T07:33:59;6.17;;;4.17;;
18726;SDS011;9492;51.888;5.186;2023-12-14T07:36:25;9.63;;;4.80;;
18726;SDS011;9492;51.888;5.186;2023-12-14T07:38:51;5.13;;;4.47;;
18726;SDS011;9492;51.888;5.186;2023-12-14T07:41:17;6.03;;;4.30;;
18726;SDS011;9492;51.888;5.186;2023-12-14T07:43:43;6.10;;;4.63;;
18726;SDS011;9492;51.888;5.186;2023-12-14T07:46:09;6.70;;;5.03;;
18726;SDS011;9492;51.888;5.186;2023-12-14T07:48:35;8.47;;;5.00;;
18726;SDS011;9492;51.888;5.186;2023-12-14T07:51:01;6.17;;;4.93;;
18726;SDS011;9492;51.888;5.186;2023-12-14T07:53:27;6.00;;;5.13;;
18726;SDS011;9492;51.888;5.186;2023-12-14T07:55:54;6.97;;;4.43;;
18726;SDS011;9492;51.888;5.186;2023-12-14T07:58:23;8.37;;;5.10;;
18726;SDS011;9492;51.888;5.186;2023-12-14T08:00:51;6.27;;;5.43;;
18726;SDS011;9492;51.888;5.186;2023-12-14T08:03:17;6.07;;;5.07;;
18726;SDS011;9492;51.888;5.186;2023-12-14T08:05:42;6.53;;;4.90;;
18726;SDS011;9492;51.888;5.186;2023-12-14T08:08:11;6.87;;;5.47;;
18726;SDS011;9492;51.888;5.186;2023-12-14T08:10:37;7.20;;;5.60;;
18726;SDS011;9492;51.888;5.186;2023-12-14T08:13:03;6.93;;;5.53;;
18726;SDS011;9492;51.888;5.186;2023-12-14T08:15:29;6.53;;;5.20;;
18726;SDS011;9492;51.888;5.186;2023-12-14T08:17:55;8.10;;;6.20;;
18726;SDS011;9492;51.888;5.186;2023-12-14T08:20:21;6.93;;;5.30;;
18726;SDS011;9492;51.888;5.186;2023-12-14T08:22:47;8.23;;;5.77;;
18726;SDS011;9492;51.888;5.186;2023-12-14T08:25:13;8.53;;;5.80;;
18726;SDS011;9492;51.888;5.186;2023-12-14T08:27:40;6.23;;;4.90;;
18726;SDS011;9492;51.888;5.186;2023-12-14T08:30:06;5.33;;;4.37;;
18726;SDS011;9492;51.888;5.186;2023-12-14T08:32:32;6.37;;;5.30;;
18726;SDS011;9492;51.888;5.186;2023-12-14T08:34:58;7.07;;;5.63;;
18726;SDS011;9492;51.888;5.186;2023-12-14T08:37:25;7.97;;;5.10;;
18726;SDS011;9492;51.888;5.186;2023-12-14T08:39:50;10.70;;;5.70;;
18726;SDS011;9492;51.888;5.186;2023-12-14T08:42:17;8.93;;;5.27;;
18726;SDS011;9492;51.888;5.186;2023-12-14T08:44:43;7.27;;;5.23;;
18726;SDS011;9492;51.888;5.186;2023-12-14T08:47:11;6.67;;;5.47;;
18726;SDS011;9492;51.888;5.186;2023-12-14T08:49:37;5.70;;;5.07;;
18726;SDS011;9492;51.888;5.186;2023-12-14T08:52:03;6.83;;;5.63;;
18726;SDS011;9492;51.888;5.186;2023-12-14T08:54:30;11.93;;;5.77;;
18726;SDS011;9492;51.888;5.186;2023-12-14T08:56:56;8.63;;;5.83;;
18726;SDS011;9492;51.888;5.186;2023-12-14T08:59:22;6.87;;;5.43;;
18726;SDS011;9492;51.888;5.186;2023-12-14T09:01:48;7.80;;;5.90;;
18726;SDS011;9492;51.888;5.186;2023-12-14T09:04:14;7.03;;;5.47;;
18726;SDS011;9492;51.888;5.186;2023-12-14T09:06:40;6.77;;;5.57;;
18726;SDS011;9492;51.888;5.186;2023-12-14T09:09:09;6.77;;;5.47;;
18726;SDS011;9492;51.888;5.186;2023-12-14T09:11:35;9.17;;;5.90;;
18726;SDS011;9492;51.888;5.186;2023-12-14T09:14:02;6.27;;;5.30;;
18726;SDS011;9492;51.888;5.186;2023-12-14T09:16:28;7.70;;;5.50;;
18726;SDS011;9492;51.888;5.186;2023-12-14T09:18:54;6.47;;;5.23;;
18726;SDS011;9492;51.888;5.186;2023-12-14T09:21:20;9.10;;;5.47;;
18726;SDS011;9492;51.888;5.186;2023-12-14T09:23:46;6.87;;;5.20;;
18726;SDS011;9492;51.888;5.186;2023-12-14T09:26:12;6.37;;;5.37;;
18726;SDS011;9492;51.888;5.186;2023-12-14T09:28:38;8.83;;;5.53;;
18726;SDS011;9492;51.888;5.186;2023-12-14T09:31:05;6.80;;;5.67;;
18726;SDS011;9492;51.888;5.186;2023-12-14T09:33:31;7.30;;;5.27;;
18726;SDS011;9492;51.888;5.186;2023-12-14T09:36:00;6.07;;;5.03;;
18726;SDS011;9492;51.888;5.186;2023-12-14T09:38:26;6.00;;;5.33;;
18726;SDS011;9492;51.888;5.186;2023-12-14T09:40:52;6.53;;;4.70;;
18726;SDS011;9492;51.888;5.186;2023-12-14T09:43:18;6.57;;;5.00;;
18726;SDS011;9492;51.888;5.186;2023-12-14T09:45:45;6.07;;;5.10;;
18726;SDS011;9492;51.888;5.186;2023-12-14T09:48:12;5.83;;;4.83;;
18726;SDS011;9492;51.888;5.186;2023-12-14T09:50:39;6.23;;;5.43;;
18726;SDS011;9492;51.888;5.186;2023-12-14T09:53:05;6.10;;;4.77;;
18726;SDS011;9492;51.888;5.186;2023-12-14T09:55:32;6.73;;;4.50;;
18726;SDS011;9492;51.888;5.186;2023-12-14T09:57:58;6.97;;;5.17;;
18726;SDS011;9492;51.888;5.186;2023-12-14T10:00:34;5.23;;;4.73;;
18726;SDS011;9492;51.888;5.186;2023-12-14T10:05:45;7.87;;;5.23;;
18726;SDS011;9492;51.888;5.186;2023-12-14T10:08:12;6.83;;;5.03;;
18726;SDS011;9492;51.888;5.186;2023-12-14T10:10:38;5.93;;;4.77;;
18726;SDS011;9492;51.888;5.186;2023-12-14T10:13:03;6.63;;;5.70;;
18726;SDS011;9492;51.888;5.186;2023-12-14T10:15:36;6.83;;;5.47;;
18726;SDS011;9492;51.888;5.186;2023-12-14T10:18:05;6.70;;;5.50;;
18726;SDS011;9492;51.888;5.186;2023-12-14T10:20:32;6.33;;;5.00;;
18726;SDS011;9492;51.888;5.186;2023-12-14T10:22:58;7.87;;;5.57;;
18726;SDS011;9492;51.888;5.186;2023-12-14T10:25:24;5.60;;;4.77;;
18726;SDS011;9492;51.888;5.186;2023-12-14T10:27:51;7.07;;;5.00;;
18726;SDS011;9492;51.888;5.186;2023-12-14T10:30:20;5.77;;;5.07;;
18726;SDS011;9492;51.888;5.186;2023-12-14T10:32:49;5.73;;;5.07;;
18726;SDS011;9492;51.888;5.186;2023-12-14T10:35:15;5.87;;;5.13;;
18726;SDS011;9492;51.888;5.186;2023-12-14T10:37:42;4.87;;;4.33;;
18726;SDS011;9492;51.888;5.186;2023-12-14T10:40:10;4.50;;;4.10;;
18726;SDS011;9492;51.888;5.186;2023-12-14T10:42:36;5.87;;;4.23;;
18726;SDS011;9492;51.888;5.186;2023-12-14T10:45:04;5.57;;;4.50;;
18726;SDS011;9492;51.888;5.186;2023-12-14T10:47:31;4.87;;;4.20;;
18726;SDS011;9492;51.888;5.186;2023-12-14T10:49:58;5.10;;;4.60;;
18726;SDS011;9492;51.888;5.186;2023-12-14T10:52:26;4.57;;;4.03;;
18726;SDS011;9492;51.888;5.186;2023-12-14T10:54:54;4.07;;;3.67;;
18726;SDS011;9492;51.888;5.186;2023-12-14T10:57:22;5.00;;;3.70;;
18726;SDS011;9492;51.888;5.186;2023-12-14T10:59:49;4.73;;;3.70;;
18726;SDS011;9492;51.888;5.186;2023-12-14T11:02:15;4.40;;;4.00;;
18726;SDS011;9492;51.888;5.186;2023-12-14T11:04:57;4.13;;;3.73;;
18726;SDS011;9492;51.888;5.186;2023-12-14T11:10:12;4.83;;;3.93;;
18726;SDS011;9492;51.888;5.186;2023-12-14T11:12:49;4.07;;;3.60;;
18726;SDS011;9492;51.888;5.186;2023-12-14T11:15:17;6.10;;;3.90;;
18726;SDS011;9492;51.888;5.186;2023-12-14T11:17:43;4.63;;;3.80;;
18726;SDS011;9492;51.888;5.186;2023-12-14T11:20:29;4.20;;;3.80;;
18726;SDS011;9492;51.888;5.186;2023-12-14T11:22:55;5.37;;;3.97;;
18726;SDS011;9492;51.888;5.186;2023-12-14T11:25:23;6.53;;;4.03;;
18726;SDS011;9492;51.888;5.186;2023-12-14T11:27:49;5.37;;;4.00;;
18726;SDS011;9492;51.888;5.186;2023-12-14T11:30:15;4.30;;;3.90;;
18726;SDS011;9492;51.888;5.186;2023-12-14T11:32:42;5.73;;;4.30;;
18726;SDS011;9492;51.888;5.186;2023-12-14T11:35:08;4.33;;;3.90;;
18726;SDS011;9492;51.888;5.186;2023-12-14T11:37:37;5.67;;;4.53;;
18726;SDS011;9492;51.888;5.186;2023-12-14T11:40:03;4.53;;;3.90;;
18726;SDS011;9492;51.888;5.186;2023-12-14T11:42:32;5.03;;;4.40;;
18726;SDS011;9492;51.888;5.186;2023-12-14T11:44:58;4.47;;;4.07;;
18726;SDS011;9492;51.888;5.186;2023-12-14T11:47:24;4.83;;;4.30;;
18726;SDS011;9492;51.888;5.186;2023-12-14T11:49:50;4.40;;;3.63;;
18726;SDS011;9492;51.888;5.186;2023-12-14T11:52:17;4.20;;;3.80;;
18726;SDS011;9492;51.888;5.186;2023-12-14T11:54:43;5.87;;;4.60;;
18726;SDS011;9492;51.888;5.186;2023-12-14T11:57:09;5.50;;;4.40;;
18726;SDS011;9492;51.888;5.186;2023-12-14T11:59:36;4.83;;;4.33;;
18726;SDS011;9492;51.888;5.186;2023-12-14T12:02:03;4.73;;;4.10;;
18726;SDS011;9492;51.888;5.186;2023-12-14T12:04:29;5.50;;;4.47;;
18726;SDS011;9492;51.888;5.186;2023-12-14T12:07:05;4.60;;;4.20;;
18726;SDS011;9492;51.888;5.186;2023-12-14T12:09:35;5.53;;;4.50;;
18726;SDS011;9492;51.888;5.186;2023-12-14T12:12:01;12.13;;;5.03;;
18726;SDS011;9492;51.888;5.186;2023-12-14T12:14:28;5.60;;;5.00;;
18726;SDS011;9492;51.888;5.186;2023-12-14T12:16:54;6.10;;;4.53;;
18726;SDS011;9492;51.888;5.186;2023-12-14T12:19:20;5.67;;;5.17;;
18726;SDS011;9492;51.888;5.186;2023-12-14T12:21:46;5.77;;;5.10;;
18726;SDS011;9492;51.888;5.186;2023-12-14T12:24:12;6.50;;;5.53;;
18726;SDS011;9492;51.888;5.186;2023-12-14T12:26:38;7.53;;;5.23;;
18726;SDS011;9492;51.888;5.186;2023-12-14T12:29:04;7.13;;;5.37;;
18726;SDS011;9492;51.888;5.186;2023-12-14T12:31:31;7.23;;;5.67;;
18726;SDS011;9492;51.888;5.186;2023-12-14T12:33:58;6.80;;;5.53;;
18726;SDS011;9492;51.888;5.186;2023-12-14T12:36:24;9.60;;;6.07;;
18726;SDS011;9492;51.888;5.186;2023-12-14T12:38:50;7.13;;;5.47;;
18726;SDS011;9492;51.888;5.186;2023-12-14T12:41:16;9.40;;;5.90;;
18726;SDS011;9492;51.888;5.186;2023-12-14T12:43:43;8.50;;;6.13;;
18726;SDS011;9492;51.888;5.186;2023-12-14T12:46:11;8.17;;;5.80;;
18726;SDS011;9492;51.888;5.186;2023-12-14T12:48:37;7.10;;;5.77;;
18726;SDS011;9492;51.888;5.186;2023-12-14T12:51:04;7.90;;;5.77;;
18726;SDS011;9492;51.888;5.186;2023-12-14T12:53:30;7.97;;;5.50;;
18726;SDS011;9492;51.888;5.186;2023-12-14T12:55:57;7.83;;;5.63;;
18726;SDS011;9492;51.888;5.186;2023-12-14T12:58:23;7.10;;;5.70;;
18726;SDS011;9492;51.888;5.186;2023-12-14T13:00:49;7.13;;;5.47;;
18726;SDS011;9492;51.888;5.186;2023-12-14T13:03:15;7.90;;;6.13;;
18726;SDS011;9492;51.888;5.186;2023-12-14T13:05:41;7.27;;;5.47;;
18726;SDS011;9492;51.888;5.186;2023-12-14T13:08:08;6.60;;;5.17;;
18726;SDS011;9492;51.888;5.186;2023-12-14T13:10:34;7.10;;;5.87;;
18726;SDS011;9492;51.888;5.186;2023-12-14T13:13:02;6.30;;;5.70;;
18726;SDS011;9492;51.888;5.186;2023-12-14T13:15:29;7.93;;;6.43;;
18726;SDS011;9492;51.888;5.186;2023-12-14T13:17:56;7.50;;;5.50;;
18726;SDS011;9492;51.888;5.186;2023-12-14T13:20:22;7.53;;;6.50;;
18726;SDS011;9492;51.888;5.186;2023-12-14T13:22:48;7.00;;;5.70;;
18726;SDS011;9492;51.888;5.186;2023-12-14T13:25:14;6.53;;;5.93;;
18726;SDS011;9492;51.888;5.186;2023-12-14T13:27:40;8.63;;;5.90;;
18726;SDS011;9492;51.888;5.186;2023-12-14T13:30:08;8.17;;;6.17;;
18726;SDS011;9492;51.888;5.186;2023-12-14T13:32:34;8.33;;;6.07;;
18726;SDS011;9492;51.888;5.186;2023-12-14T13:35:00;6.83;;;6.13;;
18726;SDS011;9492;51.888;5.186;2023-12-14T13:37:26;10.33;;;6.70;;
18726;SDS011;9492;51.888;5.186;2023-12-14T13:39:51;6.57;;;5.87;;
18726;SDS011;9492;51.888;5.186;2023-12-14T13:42:18;8.33;;;6.40;;
18726;SDS011;9492;51.888;5.186;2023-12-14T13:44:44;8.43;;;6.50;;
18726;SDS011;9492;51.888;5.186;2023-12-14T13:47:10;8.30;;;5.97;;
18726;SDS011;9492;51.888;5.186;2023-12-14T13:49:36;6.60;;;5.60;;
18726;SDS011;9492;51.888;5.186;2023-12-14T13:52:03;6.50;;;5.80;;
18726;SDS011;9492;51.888;5.186;2023-12-14T13:54:29;6.57;;;5.87;;
18726;SDS011;9492;51.888;5.186;2023-12-14T13:56:55;8.20;;;6.77;;
18726;SDS011;9492;51.888;5.186;2023-12-14T13:59:21;7.13;;;6.37;;
18726;SDS011;9492;51.888;5.186;2023-12-14T14:01:47;8.83;;;6.50;;
18726;SDS011;9492;51.888;5.186;2023-12-14T14:04:17;7.00;;;6.30;;
18726;SDS011;9492;51.888;5.186;2023-12-14T14:06:43;7.20;;;6.13;;
18726;SDS011;9492;51.888;5.186;2023-12-14T14:09:09;7.50;;;6.03;;
18726;SDS011;9492;51.888;5.186;2023-12-14T14:11:35;8.20;;;6.83;;
18726;SDS011;9492;51.888;5.186;2023-12-14T14:14:01;7.83;;;5.80;;
18726;SDS011;9492;51.888;5.186;2023-12-14T14:16:28;8.47;;;5.97;;
18726;SDS011;9492;51.888;5.186;2023-12-14T14:18:54;8.17;;;5.83;;
18726;SDS011;9492;51.888;5.186;2023-12-14T14:21:20;7.97;;;5.97;;
18726;SDS011;9492;51.888;5.186;2023-12-14T14:23:46;7.13;;;5.90;;
18726;SDS011;9492;51.888;5.186;2023-12-14T14:26:12;7.03;;;5.43;;
18726;SDS011;9492;51.888;5.186;2023-12-14T14:28:38;7.50;;;5.50;;
18726;SDS011;9492;51.888;5.186;2023-12-14T14:31:04;7.17;;;5.67;;
18726;SDS011;9492;51.888;5.186;2023-12-14T14:33:30;7.23;;;5.90;;
18726;SDS011;9492;51.888;5.186;2023-12-14T14:35:56;6.90;;;5.73;;
18726;SDS011;9492;51.888;5.186;2023-12-14T14:38:22;6.63;;;5.83;;
18726;SDS011;9492;51.888;5.186;2023-12-14T14:40:48;8.20;;;6.33;;
18726;SDS011;9492;51.888;5.186;2023-12-14T14:43:14;6.57;;;5.50;;
18726;SDS011;9492;51.888;5.186;2023-12-14T14:45:40;6.63;;;5.60;;
18726;SDS011;9492;51.888;5.186;2023-12-14T14:48:07;8.53;;;5.67;;
18726;SDS011;9492;51.888;5.186;2023-12-14T14:50:34;7.63;;;6.10;;
18726;SDS011;9492;51.888;5.186;2023-12-14T14:53:00;10.13;;;6.17;;
18726;SDS011;9492;51.888;5.186;2023-12-14T14:55:26;10.27;;;6.57;;
18726;SDS011;9492;51.888;5.186;2023-12-14T14:57:52;9.83;;;6.57;;
18726;SDS011;9492;51.888;5.186;2023-12-14T15:00:18;8.00;;;6.40;;